Time;durP1;ratioP1;P1;durP2;ratioP2;P2;SDS_P1;SDS_P2;PMS_P1;PMS_P2;Temp;Humidity;BMP_temperature;BMP_pressure;BME280_temperature;BME280_humidity;BME280_pressure;Samples;Min_cycle;Max_cycle;Signal;HPM_P1;HPM_P2
2022/05/12 07:58:48;;;;;;;16.35;12.30;;;;;;;15.19;65.62;101752.06;5310126;27;1188238;-84
2022/05/12 08:01:21;;;;;;;20.40;11.93;;;;;;;15.28;65.25;101743.03;5323334;28;20439;-85
2022/05/12 08:03:56;;;;;;;16.92;14.13;;;;;;;15.12;65.50;101761.94;5322664;28;20115;-79
2022/05/12 08:06:27;;;;;;;16.00;13.07;;;;;;;15.38;65.19;101763.28;5336020;28;20027;-81
2022/05/12 08:08:59;;;;;;;14.75;13.20;;;;;;;15.44;64.10;101761.22;5343969;28;20027;-79
2022/05/12 08:14:42;;;;;;;14.95;11.48;;;;;;;15.59;62.05;101760.19;5258554;28;20060;-84
2022/05/12 08:17:34;;;;;;;14.52;12.80;;;;;;;15.46;62.98;101758.97;5156712;29;20046;-81
2022/05/12 08:20:12;;;;;;;14.27;12.15;;;;;;;15.54;62.38;101769.47;5194390;28;20110;-83
2022/05/12 08:22:43;;;;;;;11.93;10.68;;;;;;;15.49;60.73;101772.34;5259782;28;20025;-85
2022/05/12 08:25:15;;;;;;;12.70;11.23;;;;;;;15.52;59.98;101766.19;5259536;28;20056;-81
2022/05/12 08:27:47;;;;;;;14.10;10.05;;;;;;;15.77;59.84;101766.97;5260203;28;20488;-82
2022/05/12 08:30:20;;;;;;;13.43;9.98;;;;;;;15.78;59.42;101763.03;5259624;28;20044;-83
2022/05/12 08:32:51;;;;;;;12.43;7.95;;;;;;;15.90;57.43;101769.03;5259102;28;20107;-82
2022/05/12 08:35:23;;;;;;;11.00;7.70;;;;;;;16.11;56.99;101765.91;5259462;28;20397;-82
2022/05/12 08:37:54;;;;;;;13.93;8.23;;;;;;;16.32;56.40;101760.78;5259442;28;20547;-82
2022/05/12 08:40:44;;;;;;;10.40;8.02;;;;;;;16.48;55.98;101771.38;5257507;28;20079;-80
2022/05/12 08:43:21;;;;;;;10.52;8.13;;;;;;;16.56;53.99;101771.81;5252080;28;20026;-80
2022/05/12 08:46:01;;;;;;;10.32;8.85;;;;;;;16.67;54.45;101764.91;5258900;28;20025;-79
2022/05/12 08:48:33;;;;;;;13.07;9.15;;;;;;;16.57;54.87;101768.72;5258026;28;20037;-78
2022/05/12 08:51:06;;;;;;;11.38;9.82;;;;;;;16.61;54.87;101763.31;5258367;28;20068;-77
2022/05/12 08:53:48;;;;;;;8.93;7.65;;;;;;;16.74;53.54;101760.56;5258211;28;20033;-81
2022/05/12 08:56:21;;;;;;;12.82;7.20;;;;;;;16.81;52.62;101762.97;5255899;28;20051;-81
2022/05/12 08:58:56;;;;;;;8.80;6.95;;;;;;;16.95;52.14;101771.41;5246584;28;20054;-82
2022/05/12 09:01:40;;;;;;;11.27;7.70;;;;;;;16.99;52.75;101778.03;5249856;28;20064;-83
2022/05/12 09:04:30;;;;;;;14.70;8.75;;;;;;;16.84;54.21;101769.94;5258338;28;20489;-83
2022/05/12 09:07:16;;;;;;;7.68;6.93;;;;;;;16.87;54.81;101772.97;5257560;28;20033;-84
2022/05/12 09:09:53;;;;;;;11.32;8.20;;;;;;;16.60;53.88;101778.47;5247062;28;20487;-83
2022/05/12 09:12:51;;;;;;;10.65;7.32;;;;;;;16.66;54.24;101774.44;5244418;28;20049;-82
2022/05/12 09:15:31;;;;;;;8.90;7.28;;;;;;;16.46;52.88;101775.63;5242893;28;20457;-83
2022/05/12 09:18:16;;;;;;;11.48;7.75;;;;;;;16.42;53.35;101777.41;5240085;28;20033;-80
2022/05/12 09:20:47;;;;;;;10.25;7.70;;;;;;;16.43;53.29;101782.66;5244334;28;20060;-81
2022/05/12 09:23:19;;;;;;;7.50;6.80;;;;;;;16.55;54.52;101786.97;5235888;28;20061;-79
2022/05/12 09:25:52;;;;;;;9.88;7.38;;;;;;;16.58;53.33;101786.34;5244276;28;20076;-80
2022/05/12 09:28:34;;;;;;;9.13;6.70;;;;;;;16.72;55.12;101778.81;5243730;28;20029;-80
2022/05/12 09:31:11;;;;;;;9.70;8.75;;;;;;;16.74;51.85;101774.56;5243902;28;20025;-80
2022/05/12 09:33:52;;;;;;;13.00;9.45;;;;;;;16.75;54.06;101781.00;5244024;28;20030;-80
2022/05/12 09:36:23;;;;;;;9.73;7.47;;;;;;;16.74;52.86;101782.13;5242120;28;20433;-79
2022/05/12 09:38:55;;;;;;;10.47;7.93;;;;;;;16.71;52.89;101786.38;5243869;28;20100;-81
2022/05/12 09:41:40;;;;;;;9.18;7.18;;;;;;;16.78;53.39;101766.41;5243321;28;20291;-80
2022/05/12 09:44:27;;;;;;;22.20;19.27;;;;;;;16.60;51.10;101768.09;5224535;28;20025;-81
2022/05/12 09:47:14;;;;;;;15.30;9.38;;;;;;;16.70;51.24;101783.91;5246090;28;20068;-85
2022/05/12 09:49:46;;;;;;;10.70;7.88;;;;;;;16.80;51.29;101771.72;5244282;28;20025;-87
2022/05/12 09:52:28;;;;;;;6.43;5.78;;;;;;;16.77;49.94;101778.72;5244580;28;20056;-85
2022/05/12 09:55:12;;;;;;;10.57;6.80;;;;;;;16.93;50.57;101766.09;5245032;28;20427;-88
2022/05/12 09:57:58;;;;;;;5.53;3.58;;;;;;;16.97;48.83;101766.28;5245181;28;20026;-90
2022/05/12 10:00:42;;;;;;;41.42;37.13;;;;;;;16.90;49.80;101761.13;5245141;28;20093;-87
2022/05/12 10:09:20;;;;;;;8.80;4.93;;;;;;;17.44;48.26;101757.78;5244563;28;20041;-87
2022/05/12 10:12:06;;;;;;;9.05;4.68;;;;;;;17.51;46.67;101766.56;5243289;28;20021;-84
2022/05/12 10:15:01;;;;;;;8.13;4.95;;;;;;;17.57;46.93;101766.16;5242994;28;20108;-85
2022/05/12 10:17:43;;;;;;;8.25;3.75;;;;;;;17.75;45.91;101769.94;5243372;28;20033;-83
2022/05/12 10:20:18;;;;;;;8.02;4.40;;;;;;;17.64;45.71;101767.69;5245134;28;20112;-88
2022/05/12 10:23:05;;;;;;;7.45;5.15;;;;;;;17.46;48.25;101767.53;5254983;28;20041;-84
2022/05/12 10:25:57;;;;;;;7.05;5.50;;;;;;;17.34;47.25;101765.25;5242460;28;20036;-83
2022/05/12 10:29:05;;;;;;;7.68;4.15;;;;;;;17.37;45.44;101773.03;5251675;28;20435;-88
2022/05/12 10:32:15;;;;;;;40.58;36.50;;;;;;;17.51;45.92;101769.38;5243162;28;20025;-87
2022/05/12 10:34:47;;;;;;;13.23;11.95;;;;;;;17.63;46.19;101766.84;5240230;28;20049;-85
2022/05/12 10:37:48;;;;;;;13.33;10.37;;;;;;;17.81;46.57;101771.50;5242992;28;20503;-82
2022/05/12 10:40:46;;;;;;;6.43;3.67;;;;;;;17.67;47.27;101761.47;5244680;28;20272;-85
2022/05/12 10:43:42;;;;;;;7.07;4.20;;;;;;;17.68;46.08;101763.94;5243886;28;20025;-85
2022/05/12 10:46:34;;;;;;;6.63;3.70;;;;;;;17.67;45.68;101762.28;5241317;28;20496;-81
2022/05/12 10:49:24;;;;;;;6.20;3.50;;;;;;;17.72;46.23;101767.78;5242774;28;20120;-80
2022/05/12 10:52:15;;;;;;;9.50;4.70;;;;;;;17.67;45.76;101756.69;5242610;28;20022;-82
2022/05/12 10:55:25;;;;;;;6.20;3.45;;;;;;;17.74;45.58;101762.69;5241936;28;20516;-82
2022/05/12 10:58:26;;;;;;;5.07;3.85;;;;;;;17.75;46.54;101767.16;5222557;28;20061;-82
2022/05/12 11:01:13;;;;;;;8.00;4.38;;;;;;;17.67;44.86;101772.69;5221349;28;20025;-83
2022/05/12 11:03:54;;;;;;;9.27;7.35;;;;;;;17.70;45.45;101764.47;5232791;28;20060;-82
2022/05/12 11:06:35;;;;;;;15.52;10.50;;;;;;;17.78;45.54;101758.09;5242765;28;20503;-82
2022/05/12 11:09:13;;;;;;;6.65;4.30;;;;;;;18.03;47.40;101753.06;5241910;28;20022;-82
2022/05/12 11:11:50;;;;;;;4.43;4.03;;;;;;;18.21;45.20;101751.19;5225609;28;20021;-86
2022/05/12 11:14:31;;;;;;;9.70;4.40;;;;;;;18.34;44.93;101750.28;5242408;28;20491;-83
2022/05/12 11:17:18;;;;;;;5.32;4.25;;;;;;;18.28;43.54;101751.59;5242392;28;20029;-84
2022/05/12 11:20:03;;;;;;;8.75;4.75;;;;;;;18.30;42.41;101757.69;5242759;28;20029;-82
2022/05/12 11:22:44;;;;;;;6.40;4.13;;;;;;;18.26;43.65;101753.88;5242736;28;20035;-85
2022/05/12 11:25:49;;;;;;;6.60;4.78;;;;;;;18.02;42.99;101755.03;5244508;28;20025;-85
2022/05/12 11:31:39;;;;;;;6.25;4.85;;;;;;;18.37;42.66;101741.22;5222801;28;20046;-86
2022/05/12 11:34:18;;;;;;;6.20;4.40;;;;;;;18.46;42.53;101744.09;5222701;28;20180;-79
2022/05/12 11:36:53;;;;;;;5.20;3.20;;;;;;;18.61;41.42;101749.31;5234892;28;20034;-82
2022/05/12 11:39:54;;;;;;;6.05;4.15;;;;;;;18.67;41.95;101745.19;5242870;28;20473;-80
2022/05/12 11:45:48;;;;;;;6.10;2.67;;;;;;;18.65;40.41;101741.06;5242725;28;20476;-85
2022/05/12 11:48:29;;;;;;;5.10;2.80;;;;;;;18.47;40.91;101734.50;5242405;28;20043;-81
2022/05/12 11:51:30;;;;;;;8.63;3.25;;;;;;;18.58;41.64;101735.88;5242114;28;20029;-84
2022/05/12 11:54:30;;;;;;;9.20;3.42;;;;;;;18.43;40.25;101739.09;5241532;28;20101;-82
2022/05/12 11:57:05;;;;;;;4.95;3.38;;;;;;;18.49;40.22;101748.25;5240482;28;20499;-79
2022/05/12 11:59:36;;;;;;;15.90;10.97;;;;;;;18.55;40.29;101742.16;5241449;28;20029;-79
2022/05/12 12:02:29;;;;;;;5.70;2.50;;;;;;;18.58;38.98;101746.28;5240994;28;20524;-77
2022/05/12 12:05:03;;;;;;;5.85;2.67;;;;;;;18.45;38.90;101743.25;5240537;28;20624;-83
2022/05/12 12:07:35;;;;;;;7.65;3.75;;;;;;;18.34;38.86;101741.03;5241290;28;20373;-82
2022/05/12 12:10:25;;;;;;;5.82;2.20;;;;;;;18.40;39.57;101739.75;5236752;28;20022;-79
2022/05/12 12:13:15;;;;;;;6.43;2.45;;;;;;;18.50;40.26;101747.91;5220301;28;20505;-79
2022/05/12 12:15:55;;;;;;;6.20;2.70;;;;;;;18.49;39.79;101743.44;5220791;28;20030;-80
2022/05/12 12:18:29;;;;;;;7.90;2.85;;;;;;;18.64;39.09;101740.22;5219851;28;20061;-77
2022/05/12 12:21:26;;;;;;;6.30;2.78;;;;;;;18.67;39.03;101738.75;5230283;28;20403;-80
2022/05/12 12:24:08;;;;;;;5.93;3.67;;;;;;;18.75;39.01;101739.94;5296748;22;20058;-73
2022/05/12 12:26:42;;;;;;;5.85;2.80;;;;;;;19.00;39.49;101735.63;5238800;28;20037;-77
2022/05/12 12:29:17;;;;;;;7.35;3.25;;;;;;;19.04;38.35;101743.06;5240868;28;20025;-79
2022/05/12 12:31:51;;;;;;;5.07;2.75;;;;;;;18.73;37.23;101736.63;5240061;28;20128;-75
2022/05/12 12:34:26;;;;;;;7.20;2.90;;;;;;;18.84;37.54;101732.41;5241018;28;20358;-75
2022/05/12 12:37:08;;;;;;;;;;;;;;;19.07;37.23;101731.19;5240887;28;20409;-76
2022/05/12 12:39:42;;;;;;;28.70;24.75;;;;;;;19.17;37.06;101729.19;5239624;28;19917;-79
2022/05/12 12:42:28;;;;;;;6.07;4.00;;;;;;;19.23;38.18;101725.09;5241225;28;20025;-81
2022/05/12 12:45:09;;;;;;;5.10;2.95;;;;;;;19.38;37.54;101720.97;5244098;28;20461;-81
2022/05/12 12:48:00;;;;;;;4.85;3.38;;;;;;;19.35;37.25;101722.44;5245647;28;20171;-81
2022/05/12 12:50:45;;;;;;;6.10;3.33;;;;;;;19.28;37.25;101725.75;5244631;28;20017;-82
2022/05/12 12:56:30;;;;;;;6.15;2.65;;;;;;;19.29;38.72;101721.78;5243356;28;20048;-83
2022/05/12 12:56:34;;;;;;;8.93;6.38;;;;;;;19.20;37.91;101717.28;5244569;28;20038;-83
2022/05/12 12:59:22;;;;;;;6.47;3.42;;;;;;;19.09;37.73;101705.53;5224599;28;20397;-82
2022/05/12 13:01:57;;;;;;;6.50;3.30;;;;;;;18.86;37.89;101704.81;5236913;28;20064;-86
2022/05/12 13:04:35;;;;;;;6.80;3.42;;;;;;;19.04;37.92;101709.31;5244896;28;20069;-87
2022/05/12 13:07:09;;;;;;;6.53;3.95;;;;;;;19.02;38.17;101699.56;5245295;28;20052;-84
2022/05/12 13:09:44;;;;;;;4.55;3.30;;;;;;;19.09;38.68;101706.34;5243745;28;20021;-83
2022/05/12 13:12:22;;;;;;;5.20;3.00;;;;;;;19.10;38.52;101708.03;5244523;28;20105;-84
2022/05/12 13:14:56;;;;;;;6.53;3.67;;;;;;;19.07;38.43;101702.22;5243566;28;20520;-83
2022/05/12 13:17:34;;;;;;;18.45;15.63;;;;;;;19.17;38.07;101698.28;5303397;22;20049;-82
2022/05/12 13:20:15;;;;;;;6.80;4.40;;;;;;;19.26;38.17;101705.56;5236974;28;20183;-77
2022/05/12 13:22:56;;;;;;;9.52;3.22;;;;;;;19.33;38.27;101689.06;5224220;28;20056;-76
2022/05/12 13:25:31;;;;;;;4.93;3.60;;;;;;;19.20;37.71;101689.19;5242374;28;20060;-80
2022/05/12 13:28:06;;;;;;;3.08;2.50;;;;;;;19.38;38.74;101684.41;5242358;28;20025;-80
2022/05/12 13:30:41;;;;;;;7.82;3.15;;;;;;;19.37;37.72;101689.22;5226489;28;20022;-77
2022/05/12 13:33:18;;;;;;;4.55;2.70;;;;;;;19.39;37.95;101686.09;5223160;28;20041;-76
2022/05/12 13:36:04;;;;;;;9.63;2.80;;;;;;;19.51;38.74;101681.47;5228387;28;20029;-77
2022/05/12 13:38:45;;;;;;;5.88;2.55;;;;;;;19.51;37.26;101670.19;5242080;28;20034;-83
2022/05/12 13:41:32;;;;;;;4.43;2.28;;;;;;;19.38;37.06;101673.16;5209728;28;20126;-83
2022/05/12 13:44:10;;;;;;;4.57;2.88;;;;;;;19.19;36.95;101682.72;5228580;28;20037;-82
2022/05/12 13:46:49;;;;;;;4.45;2.72;;;;;;;19.27;37.29;101676.28;5241358;28;20057;-81
2022/05/12 13:49:35;;;;;;;5.32;2.85;;;;;;;19.23;37.12;101682.91;5237078;28;20014;-82
2022/05/12 13:52:13;;;;;;;5.95;3.15;;;;;;;19.36;37.86;101673.50;5217823;28;20061;-80
2022/05/12 13:54:53;;;;;;;4.32;2.95;;;;;;;19.40;37.67;101671.66;5243422;28;20477;-81
2022/05/12 13:57:43;;;;;;;7.97;3.13;;;;;;;19.47;38.00;101672.00;5232675;28;20030;-83
2022/05/12 14:00:28;;;;;;;6.82;3.13;;;;;;;19.39;37.89;101670.03;5224528;28;20053;-80
2022/05/12 14:03:23;;;;;;;5.43;3.25;;;;;;;19.37;37.84;101668.69;5253010;28;20025;-83
2022/05/12 14:06:10;;;;;;;16.58;12.43;;;;;;;19.25;37.70;101670.19;5246060;28;20100;-81
2022/05/12 14:08:45;;;;;;;24.30;20.73;;;;;;;19.33;37.61;101668.53;5248175;28;20465;-80
2022/05/12 14:11:27;;;;;;;7.88;4.07;;;;;;;19.27;37.92;101669.84;5256051;28;20034;-82
2022/05/12 14:19:42;;;;;;;12.80;5.53;;;;;;;19.46;37.34;101649.84;5243275;28;20033;-81
2022/05/12 14:22:17;;;;;;;16.73;9.45;;;;;;;19.46;38.04;101650.69;5205537;28;20022;-81
2022/05/12 14:24:50;;;;;;;42.47;28.42;;;;;;;19.62;37.70;101655.81;5220760;28;20539;-81
2022/05/12 14:27:21;;;;;;;6.47;3.67;;;;;;;19.42;37.48;101652.47;5223571;28;20034;-80
2022/05/12 14:29:52;;;;;;;5.72;3.92;;;;;;;19.44;37.29;101638.91;5241229;28;20029;-81
2022/05/12 14:32:29;;;;;;;10.93;3.83;;;;;;;19.56;37.63;101646.72;5242909;28;20048;-85
2022/05/12 14:35:00;;;;;;;7.63;3.60;;;;;;;19.74;38.31;101648.38;5229460;28;20072;-86
2022/05/12 14:37:35;;;;;;;8.80;3.40;;;;;;;19.49;37.49;101647.19;5241430;28;20041;-78
2022/05/12 14:40:07;;;;;;;7.28;3.88;;;;;;;19.53;38.04;101642.56;5226962;28;20507;-78
2022/05/12 14:42:38;;;;;;;6.47;3.17;;;;;;;19.59;38.19;101645.22;5223602;28;20084;-80
2022/05/12 14:45:10;;;;;;;6.60;3.08;;;;;;;19.74;37.79;101637.13;5237196;28;20030;-85
2022/05/12 14:47:43;;;;;;;7.97;3.05;;;;;;;19.89;37.41;101641.41;5244020;28;20029;-84
2022/05/12 14:50:19;;;;;;;43.53;25.60;;;;;;;19.93;37.56;101633.09;5229498;28;20111;-81
2022/05/12 14:52:50;;;;;;;8.38;5.18;;;;;;;19.90;36.68;101628.97;5238201;28;20032;-83
2022/05/12 14:55:23;;;;;;;11.52;9.68;;;;;;;19.83;36.65;101636.28;5246003;28;20033;-80
2022/05/12 14:57:54;;;;;;;21.17;18.95;;;;;;;19.76;37.58;101619.88;5237267;28;20380;-82
2022/05/12 15:00:25;;;;;;;7.40;3.47;;;;;;;19.64;37.83;101625.34;5235301;28;20018;-80
2022/05/12 15:02:57;;;;;;;7.95;5.18;;;;;;;19.75;37.87;101621.06;5241677;28;20472;-81
2022/05/12 15:05:31;;;;;;;6.38;2.90;;;;;;;19.90;37.96;101623.34;5242562;28;20392;-82
2022/05/12 15:08:04;;;;;;;9.25;4.63;;;;;;;19.96;37.75;101627.63;5241661;28;20423;-81
2022/05/12 15:10:35;;;;;;;5.40;2.55;;;;;;;19.97;38.49;101629.28;5231367;28;20037;-83
2022/05/12 15:13:09;;;;;;;5.03;2.67;;;;;;;19.88;38.34;101614.41;5243820;28;20026;-81
2022/05/12 15:15:40;;;;;;;4.35;2.42;;;;;;;19.83;38.41;101620.22;5242844;28;20061;-83
2022/05/12 15:18:12;;;;;;;8.48;2.53;;;;;;;19.95;38.31;101614.72;5242882;28;20077;-84
2022/05/12 15:20:43;;;;;;;6.03;3.08;;;;;;;19.88;37.93;101624.84;5223377;28;20034;-83
2022/05/12 15:23:14;;;;;;;5.70;2.47;;;;;;;19.90;38.35;101620.53;5223182;28;20112;-83
2022/05/12 15:25:49;;;;;;;7.35;3.20;;;;;;;20.00;38.35;101622.16;5229189;28;20021;-85
2022/05/12 15:28:27;;;;;;;6.20;2.88;;;;;;;19.97;38.29;101612.41;5240083;28;20087;-81
2022/05/12 15:30:58;;;;;;;5.40;3.17;;;;;;;20.05;38.09;101613.53;5242316;28;20116;-81
2022/05/12 15:33:29;;;;;;;5.85;2.90;;;;;;;20.07;38.24;101613.19;5240860;28;20104;-79
2022/05/12 15:36:01;;;;;;;9.38;2.85;;;;;;;20.00;38.60;101613.72;5220593;28;20030;-80
2022/05/12 15:38:33;;;;;;;9.80;2.58;;;;;;;20.04;38.11;101611.88;5221032;28;20065;-83
2022/05/12 15:41:04;;;;;;;9.57;3.00;;;;;;;20.09;38.06;101622.13;5221599;28;20049;-82
2022/05/12 15:43:35;;;;;;;8.50;2.80;;;;;;;20.10;38.47;101621.81;5222792;28;20086;-82
2022/05/12 15:46:12;;;;;;;5.25;2.42;;;;;;;20.06;37.92;101620.00;5240011;28;20033;-81
2022/05/12 15:48:43;;;;;;;5.50;2.20;;;;;;;20.11;37.75;101625.44;5227382;28;20037;-75
2022/05/12 15:51:14;;;;;;;8.07;2.53;;;;;;;20.16;38.08;101614.00;5225482;28;20032;-75
2022/05/12 15:53:46;;;;;;;7.15;2.50;;;;;;;20.11;36.83;101614.19;5229239;28;20021;-77
2022/05/12 15:56:19;;;;;;;7.63;2.97;;;;;;;19.91;37.50;101610.91;5240718;28;20037;-79
2022/05/12 15:58:51;;;;;;;4.57;2.80;;;;;;;19.97;38.25;101609.59;5233321;28;20034;-80
2022/05/12 16:01:22;;;;;;;6.40;3.28;;;;;;;19.90;38.02;101609.28;5230383;28;20029;-80
2022/05/12 16:03:54;;;;;;;6.22;2.55;;;;;;;19.94;38.02;101599.00;5220451;28;20533;-79
2022/05/12 16:06:26;;;;;;;11.50;2.53;;;;;;;19.93;38.03;101608.59;5220792;28;20022;-77
2022/05/12 16:09:02;;;;;;;6.85;2.30;;;;;;;19.95;38.00;101609.09;5220795;28;20472;-74
2022/05/12 16:14:26;;;;;;;7.40;3.58;;;;;;;19.83;37.87;101599.69;5225290;28;20034;-76
2022/05/12 16:17:05;;;;;;;6.10;2.40;;;;;;;19.79;37.99;101593.06;5232528;28;20041;-76
2022/05/12 16:19:36;;;;;;;7.03;2.60;;;;;;;19.94;37.72;101590.56;5241894;28;20037;-77
2022/05/12 16:22:07;;;;;;;4.95;2.35;;;;;;;20.00;37.67;101581.94;5325662;22;20049;-78
2022/05/12 16:24:39;;;;;;;4.78;2.03;;;;;;;20.07;37.52;101582.22;5268192;28;20032;-78
2022/05/12 16:27:13;;;;;;;9.02;2.90;;;;;;;19.81;37.34;101582.31;5268676;28;20044;-78
2022/05/12 16:29:59;;;;;;;5.28;2.50;;;;;;;19.97;37.96;101583.44;5286832;28;20031;-76
2022/05/12 16:32:30;;;;;;;9.55;2.97;;;;;;;20.01;38.27;101592.03;5285459;28;20025;-75
2022/05/12 16:35:03;;;;;;;9.13;2.38;;;;;;;20.12;37.68;101580.06;5268514;28;20032;-76
2022/05/12 16:37:38;;;;;;;8.13;2.95;;;;;;;20.28;37.41;101571.88;5271155;28;20426;-76
2022/05/12 16:40:12;;;;;;;7.65;3.10;;;;;;;20.34;36.79;101570.50;5265777;28;20056;-77
2022/05/12 16:42:47;;;;;;;6.35;2.10;;;;;;;20.28;36.70;101576.69;5265369;28;20528;-78
2022/05/12 16:45:19;;;;;;;7.05;2.40;;;;;;;20.19;37.05;101573.91;5306880;28;20028;-78
2022/05/12 16:48:09;;;;;;;5.32;2.40;;;;;;;20.13;37.46;101569.63;5307598;28;20390;-78
2022/05/12 16:50:54;;;;;;;4.47;1.95;;;;;;;20.03;37.02;101570.81;5307409;28;20081;-78
2022/05/12 16:53:27;;;;;;;4.45;2.30;;;;;;;19.95;37.47;101574.50;5292989;28;20025;-78
2022/05/12 16:55:58;;;;;;;5.28;2.00;;;;;;;19.98;37.66;101577.44;5281502;28;20028;-75
2022/05/12 16:58:30;;;;;;;8.85;2.78;;;;;;;19.88;37.00;101574.19;5264952;28;20380;-78
2022/05/12 17:01:01;;;;;;;4.75;2.08;;;;;;;19.97;37.61;101583.44;5265663;28;20464;-77
2022/05/12 17:03:33;;;;;;;6.30;2.97;;;;;;;20.13;37.58;101573.25;5267214;28;20148;-77
2022/05/12 17:06:06;;;;;;;6.55;2.83;;;;;;;20.31;37.47;101579.66;5278160;28;20062;-77
2022/05/12 17:08:37;;;;;;;4.45;2.40;;;;;;;20.32;37.37;101572.00;5273128;28;20506;-78
2022/05/12 17:11:11;;;;;;;6.47;2.60;;;;;;;20.09;37.09;101569.47;5295058;28;20028;-73
2022/05/12 17:13:43;;;;;;;13.10;2.80;;;;;;;20.03;37.68;101564.38;5278371;28;20027;-82
2022/05/12 17:16:15;;;;;;;7.18;3.00;;;;;;;19.81;37.94;101571.88;5285826;28;20020;-76
2022/05/12 17:18:49;;;;;;;11.85;3.30;;;;;;;19.80;38.10;101569.41;5286156;28;20510;-77
2022/05/12 17:21:21;;;;;;;12.93;6.45;;;;;;;19.69;38.22;101568.94;5284988;28;20407;-78
2022/05/12 17:23:53;;;;;;;5.97;3.00;;;;;;;19.75;38.53;101562.78;5286388;28;20061;-78
2022/05/12 17:26:24;;;;;;;6.05;3.03;;;;;;;19.67;38.51;101563.63;5285562;28;20021;-76
2022/05/12 17:28:56;;;;;;;17.48;12.85;;;;;;;19.67;38.53;101565.63;5291681;22;20528;-78
